SIA225 WSSS-VDTI
Flight info
| Callsign | SIA225 |
|---|---|
| Flight time | N/A |
| Altitude | 39000 |
| Route | VMR9B VMR L642 EGOLO DCT IPRIX/K0900F400 M753 BITOD/K0906F390 M755 KISAN KISAN1C |
| Aircraft | A359/H-SDE2E3GHIJ3J4J5LM1ORWXY/LB1D1 |
Departure
| Time | 2026-05-06 07:01 |
|---|---|
| Airport | Singapore Changi Airport (WSSS) |
Arrival
| Time | N/A |
|---|---|
| Airport | Techo International Airport (VDTI) |
| Time | Latitude | Longitude | Altitude | Speed | Heading |
|---|---|---|---|---|---|
| 2026-05-06 06:27 | 1.35039 | 103.98836 | 33 ft | 0 kts | 292° |
| 2026-05-06 06:50 | 1.35035 | 103.98846 | 33 ft | 2 kts | 292° |
| 2026-05-06 06:50 | 1.35029 | 103.98860 | 33 ft | 2 kts | 292° |
| 2026-05-06 06:50 | 1.35023 | 103.98874 | 33 ft | 2 kts | 292° |
| 2026-05-06 06:51 | 1.35020 | 103.98888 | 33 ft | 2 kts | 260° |
| 2026-05-06 06:51 | 1.35025 | 103.98901 | 33 ft | 2 kts | 231° |
| 2026-05-06 06:51 | 1.35036 | 103.98912 | 33 ft | 2 kts | 214° |
| 2026-05-06 06:51 | 1.35049 | 103.98919 | 33 ft | 2 kts | 199° |
| 2026-05-06 06:52 | 1.35058 | 103.98922 | 33 ft | 1 kts | 200° |
| 2026-05-06 06:52 | 1.35059 | 103.98922 | 33 ft | 0 kts | 200° |
| 2026-05-06 06:54 | 1.35054 | 103.98920 | 33 ft | 1 kts | 203° |
| 2026-05-06 06:54 | 1.35036 | 103.98913 | 33 ft | 3 kts | 203° |
| 2026-05-06 06:54 | 1.35006 | 103.98900 | 33 ft | 5 kts | 203° |
| 2026-05-06 06:54 | 1.34963 | 103.98885 | 33 ft | 6 kts | 181° |
| 2026-05-06 06:55 | 1.34921 | 103.98916 | 33 ft | 8 kts | 123° |
| 2026-05-06 06:55 | 1.34896 | 103.98970 | 33 ft | 9 kts | 113° |
| 2026-05-06 06:55 | 1.34868 | 103.99036 | 33 ft | 10 kts | 113° |
| 2026-05-06 06:55 | 1.34832 | 103.99104 | 33 ft | 11 kts | 139° |
| 2026-05-06 06:56 | 1.34760 | 103.99097 | 33 ft | 9 kts | 205° |
| 2026-05-06 06:56 | 1.34692 | 103.99068 | 33 ft | 11 kts | 202° |
| 2026-05-06 06:56 | 1.34607 | 103.99033 | 33 ft | 14 kts | 202° |
| 2026-05-06 06:56 | 1.34503 | 103.98991 | 33 ft | 17 kts | 202° |
| 2026-05-06 06:57 | 1.34383 | 103.98940 | 33 ft | 19 kts | 203° |
| 2026-05-06 06:57 | 1.34252 | 103.98885 | 33 ft | 21 kts | 204° |
| 2026-05-06 06:57 | 1.34112 | 103.98825 | 33 ft | 22 kts | 202° |
| 2026-05-06 06:57 | 1.33964 | 103.98762 | 33 ft | 23 kts | 202° |
| 2026-05-06 06:58 | 1.33809 | 103.98697 | 33 ft | 24 kts | 206° |
| 2026-05-06 06:58 | 1.33746 | 103.98667 | 33 ft | 24 kts | 205° |
| 2026-05-06 06:58 | 1.33582 | 103.98600 | 33 ft | 25 kts | 202° |
| 2026-05-06 06:58 | 1.33412 | 103.98530 | 33 ft | 26 kts | 204° |
| 2026-05-06 06:59 | 1.33236 | 103.98455 | 33 ft | 27 kts | 203° |
| 2026-05-06 06:59 | 1.33074 | 103.98386 | 33 ft | 17 kts | 203° |
| 2026-05-06 06:59 | 1.32987 | 103.98360 | 33 ft | 11 kts | 178° |
| 2026-05-06 06:59 | 1.32929 | 103.98412 | 33 ft | 12 kts | 113° |
| 2026-05-06 07:00 | 1.32905 | 103.98495 | 33 ft | 11 kts | 74° |
| 2026-05-06 07:00 | 1.32947 | 103.98528 | 33 ft | 0 kts | 25° |
| 2026-05-06 07:00 | 1.32952 | 103.98531 | 33 ft | 1 kts | 25° |
| 2026-05-06 07:00 | 1.33004 | 103.98553 | 33 ft | 28 kts | 23° |
| 2026-05-06 07:01 | 1.33428 | 103.98733 | 33 ft | 101 kts | 22° |
| 2026-05-06 07:01 | 1.34276 | 103.99090 | 34 ft | 160 kts | 24° |
| 2026-05-06 07:01 | 1.35403 | 103.99562 | 389 ft | 181 kts | 24° |
| 2026-05-06 07:01 | 1.36559 | 104.00037 | 1105 ft | 180 kts | 24° |
| 2026-05-06 07:02 | 1.37690 | 104.00528 | 1850 ft | 177 kts | 25° |
| 2026-05-06 07:02 | 1.38853 | 104.01027 | 2380 ft | 189 kts | 25° |
| 2026-05-06 07:02 | 1.40102 | 104.01561 | 2752 ft | 202 kts | 24° |
| 2026-05-06 07:02 | 1.41464 | 104.02138 | 3078 ft | 218 kts | 24° |
| 2026-05-06 07:03 | 1.42903 | 104.02746 | 3442 ft | 233 kts | 23° |
| 2026-05-06 07:03 | 1.44438 | 104.03392 | 3868 ft | 247 kts | 24° |
| 2026-05-06 07:03 | 1.46091 | 104.04088 | 4272 ft | 263 kts | 23° |
| 2026-05-06 07:03 | 1.47528 | 104.04691 | 4717 ft | 272 kts | 22° |
| 2026-05-06 07:04 | 1.49382 | 104.05069 | 5363 ft | 278 kts | 355° |
| 2026-05-06 07:04 | 1.51198 | 104.04495 | 6220 ft | 276 kts | 332° |
| 2026-05-06 07:04 | 1.52889 | 104.03552 | 6947 ft | 280 kts | 332° |
| 2026-05-06 07:04 | 1.54600 | 104.02606 | 7611 ft | 286 kts | 332° |
| 2026-05-06 07:05 | 1.56360 | 104.01643 | 8318 ft | 290 kts | 332° |
| 2026-05-06 07:05 | 1.58141 | 104.00674 | 9022 ft | 294 kts | 332° |
| 2026-05-06 07:05 | 1.59950 | 103.99693 | 9711 ft | 297 kts | 332° |
| 2026-05-06 07:05 | 1.61779 | 103.98704 | 10391 ft | 301 kts | 333° |
| 2026-05-06 07:06 | 1.63657 | 103.97690 | 10776 ft | 316 kts | 333° |
| 2026-05-06 07:06 | 1.65647 | 103.96617 | 11111 ft | 332 kts | 333° |
| 2026-05-06 07:06 | 1.67727 | 103.95496 | 11441 ft | 347 kts | 333° |
| 2026-05-06 07:06 | 1.69890 | 103.94329 | 11995 ft | 353 kts | 333° |
| 2026-05-06 07:07 | 1.72059 | 103.93158 | 12630 ft | 356 kts | 333° |
| 2026-05-06 07:07 | 1.74289 | 103.92039 | 13247 ft | 358 kts | 340° |
| 2026-05-06 07:07 | 1.76674 | 103.91293 | 13877 ft | 359 kts | 350° |
| 2026-05-06 07:07 | 1.79143 | 103.90955 | 14432 ft | 360 kts | 358° |
| 2026-05-06 07:08 | 1.81641 | 103.90790 | 14998 ft | 363 kts | 358° |
| 2026-05-06 07:08 | 1.84183 | 103.90646 | 15533 ft | 367 kts | 359° |
| 2026-05-06 07:08 | 1.86765 | 103.90497 | 16079 ft | 370 kts | 358° |
| 2026-05-06 07:08 | 1.89321 | 103.90345 | 16600 ft | 373 kts | 358° |
| 2026-05-06 07:09 | 1.91928 | 103.90185 | 17110 ft | 376 kts | 358° |
| 2026-05-06 07:09 | 1.94590 | 103.90019 | 17625 ft | 379 kts | 358° |
| 2026-05-06 07:09 | 1.97212 | 103.89859 | 18130 ft | 382 kts | 358° |
| 2026-05-06 07:09 | 1.99881 | 103.89685 | 18606 ft | 385 kts | 358° |
| 2026-05-06 07:10 | 2.02585 | 103.89508 | 19083 ft | 388 kts | 358° |
| 2026-05-06 07:10 | 2.05277 | 103.89333 | 19540 ft | 391 kts | 358° |
| 2026-05-06 07:10 | 2.08049 | 103.89155 | 20000 ft | 394 kts | 358° |
| 2026-05-06 07:10 | 2.10792 | 103.88979 | 20444 ft | 397 kts | 359° |
| 2026-05-06 07:11 | 2.13568 | 103.88802 | 20880 ft | 400 kts | 358° |
| 2026-05-06 07:11 | 2.16384 | 103.88622 | 21316 ft | 403 kts | 359° |
| 2026-05-06 07:11 | 2.19200 | 103.88444 | 21748 ft | 406 kts | 359° |
| 2026-05-06 07:11 | 2.22020 | 103.88264 | 22161 ft | 409 kts | 359° |
| 2026-05-06 07:12 | 2.24863 | 103.88085 | 22582 ft | 412 kts | 359° |
| 2026-05-06 07:12 | 2.27752 | 103.87901 | 23006 ft | 414 kts | 359° |
| 2026-05-06 07:12 | 2.30641 | 103.87719 | 23432 ft | 417 kts | 359° |
| 2026-05-06 07:12 | 2.33545 | 103.87534 | 23841 ft | 419 kts | 359° |
| 2026-05-06 07:13 | 2.36468 | 103.87399 | 24241 ft | 421 kts | 1° |
| 2026-05-06 07:13 | 2.39439 | 103.87456 | 24636 ft | 422 kts | 5° |
| 2026-05-06 07:13 | 2.42360 | 103.87717 | 25013 ft | 424 kts | 9° |
| 2026-05-06 07:13 | 2.45277 | 103.88131 | 25378 ft | 426 kts | 11° |
| 2026-05-06 07:14 | 2.48227 | 103.88575 | 25738 ft | 428 kts | 11° |
| 2026-05-06 07:14 | 2.51197 | 103.89028 | 26087 ft | 431 kts | 11° |
| 2026-05-06 07:14 | 2.54164 | 103.89478 | 26429 ft | 433 kts | 11° |
| 2026-05-06 07:14 | 2.57174 | 103.89933 | 26765 ft | 435 kts | 11° |
| 2026-05-06 07:15 | 2.60168 | 103.90383 | 27091 ft | 437 kts | 11° |
| 2026-05-06 07:15 | 2.63226 | 103.90842 | 27399 ft | 440 kts | 11° |
| 2026-05-06 07:15 | 2.66257 | 103.91296 | 27698 ft | 442 kts | 10° |
| 2026-05-06 07:15 | 2.69299 | 103.91753 | 27991 ft | 444 kts | 10° |
| 2026-05-06 07:16 | 2.72376 | 103.92214 | 28273 ft | 447 kts | 10° |
| 2026-05-06 07:16 | 2.75456 | 103.92676 | 28557 ft | 449 kts | 10° |
| 2026-05-06 07:16 | 2.78585 | 103.93145 | 28874 ft | 450 kts | 10° |
| 2026-05-06 07:16 | 2.81694 | 103.93612 | 29164 ft | 452 kts | 10° |
| 2026-05-06 07:17 | 2.84818 | 103.94080 | 29429 ft | 454 kts | 10° |
| 2026-05-06 07:17 | 2.87919 | 103.94544 | 29698 ft | 455 kts | 10° |
| 2026-05-06 07:17 | 2.91102 | 103.95021 | 29961 ft | 457 kts | 10° |
| 2026-05-06 07:17 | 2.94253 | 103.95498 | 30223 ft | 459 kts | 10° |
| 2026-05-06 07:18 | 2.97407 | 103.95978 | 30473 ft | 461 kts | 10° |
| 2026-05-06 07:18 | 3.00583 | 103.96463 | 30702 ft | 463 kts | 10° |
| 2026-05-06 07:18 | 3.03785 | 103.96950 | 30921 ft | 465 kts | 10° |
| 2026-05-06 07:18 | 3.07029 | 103.97446 | 31143 ft | 468 kts | 10° |
| 2026-05-06 07:19 | 3.10277 | 103.97941 | 31367 ft | 470 kts | 10° |
| 2026-05-06 07:19 | 3.13523 | 103.98434 | 31610 ft | 471 kts | 9° |
| 2026-05-06 07:19 | 3.16779 | 103.98929 | 31834 ft | 473 kts | 9° |
| 2026-05-06 07:19 | 3.20052 | 103.99426 | 32059 ft | 474 kts | 9° |
| 2026-05-06 07:20 | 3.23336 | 103.99925 | 32286 ft | 476 kts | 9° |
| 2026-05-06 07:20 | 3.26588 | 104.00420 | 32502 ft | 477 kts | 9° |
| 2026-05-06 07:20 | 3.29890 | 104.00915 | 32745 ft | 479 kts | 8° |
| 2026-05-06 07:20 | 3.33223 | 104.01286 | 32989 ft | 481 kts | 6° |
| 2026-05-06 07:21 | 3.36591 | 104.01486 | 33215 ft | 483 kts | 3° |
| 2026-05-06 07:21 | 3.39955 | 104.01605 | 33438 ft | 484 kts | 3° |
| 2026-05-06 07:21 | 3.43330 | 104.01711 | 33659 ft | 486 kts | 3° |
| 2026-05-06 07:21 | 3.46708 | 104.01815 | 33951 ft | 486 kts | 2° |
| 2026-05-06 07:22 | 3.50118 | 104.01920 | 34323 ft | 485 kts | 2° |
| 2026-05-06 07:22 | 3.53472 | 104.02026 | 34724 ft | 483 kts | 2° |
| 2026-05-06 07:22 | 3.56851 | 104.02132 | 35143 ft | 481 kts | 3° |
| 2026-05-06 07:22 | 3.60220 | 104.02239 | 35560 ft | 478 kts | 2° |
| 2026-05-06 07:23 | 3.63558 | 104.02345 | 35910 ft | 477 kts | 3° |
| 2026-05-06 07:23 | 3.66903 | 104.02453 | 36210 ft | 476 kts | 3° |
| 2026-05-06 07:23 | 3.70206 | 104.02558 | 36496 ft | 476 kts | 3° |
| 2026-05-06 07:23 | 3.73545 | 104.02666 | 36764 ft | 475 kts | 3° |
| 2026-05-06 07:24 | 3.76875 | 104.02773 | 37000 ft | 476 kts | 3° |
| 2026-05-06 07:24 | 3.80198 | 104.02880 | 37205 ft | 476 kts | 3° |
| 2026-05-06 07:24 | 3.83563 | 104.02989 | 37405 ft | 476 kts | 3° |
| 2026-05-06 07:24 | 3.86875 | 104.03096 | 37568 ft | 477 kts | 3° |
| 2026-05-06 07:25 | 3.90221 | 104.03203 | 37717 ft | 478 kts | 3° |
| 2026-05-06 07:25 | 3.93588 | 104.03310 | 37867 ft | 479 kts | 3° |
| 2026-05-06 07:25 | 3.96947 | 104.03419 | 38023 ft | 480 kts | 3° |
| 2026-05-06 07:25 | 4.00305 | 104.03526 | 38186 ft | 480 kts | 3° |
| 2026-05-06 07:26 | 4.03642 | 104.03634 | 38326 ft | 480 kts | 3° |
| 2026-05-06 07:26 | 4.07008 | 104.03742 | 38450 ft | 481 kts | 3° |
| 2026-05-06 07:26 | 4.10392 | 104.03851 | 38575 ft | 482 kts | 3° |
| 2026-05-06 07:26 | 4.13754 | 104.03959 | 38700 ft | 482 kts | 3° |
| 2026-05-06 07:27 | 4.17126 | 104.04066 | 38758 ft | 483 kts | 3° |
| 2026-05-06 07:27 | 4.23885 | 104.04282 | 38759 ft | 483 kts | 3° |
| 2026-05-06 07:28 | 4.30666 | 104.04499 | 38764 ft | 483 kts | 3° |
| 2026-05-06 07:28 | 4.40759 | 104.04823 | 38763 ft | 483 kts | 3° |
| 2026-05-06 07:29 | 4.47511 | 104.05041 | 38766 ft | 483 kts | 3° |
| 2026-05-06 07:29 | 4.54256 | 104.05258 | 38765 ft | 482 kts | 3° |
| 2026-05-06 07:30 | 4.60952 | 104.05473 | 38771 ft | 483 kts | 3° |
| 2026-05-06 07:30 | 4.67697 | 104.05691 | 38761 ft | 483 kts | 3° |
| 2026-05-06 07:31 | 4.74450 | 104.05907 | 38767 ft | 483 kts | 3° |
| 2026-05-06 07:31 | 4.81175 | 104.06123 | 38761 ft | 483 kts | 3° |
| 2026-05-06 07:32 | 4.87936 | 104.06341 | 38765 ft | 483 kts | 3° |
| 2026-05-06 07:32 | 4.94662 | 104.06559 | 38764 ft | 482 kts | 3° |
| 2026-05-06 07:33 | 5.01375 | 104.06775 | 38763 ft | 482 kts | 3° |
| 2026-05-06 07:33 | 5.08081 | 104.06991 | 38755 ft | 482 kts | 3° |
| 2026-05-06 07:34 | 5.14802 | 104.07205 | 38754 ft | 482 kts | 3° |
| 2026-05-06 07:34 | 5.21561 | 104.07420 | 38751 ft | 483 kts | 4° |
| 2026-05-06 07:35 | 5.28294 | 104.07637 | 38751 ft | 483 kts | 4° |
| 2026-05-06 07:35 | 5.35071 | 104.07858 | 38749 ft | 483 kts | 3° |
| 2026-05-06 07:36 | 5.41789 | 104.08073 | 38758 ft | 482 kts | 4° |
| 2026-05-06 07:36 | 5.48538 | 104.08290 | 38758 ft | 483 kts | 4° |
| 2026-05-06 07:37 | 5.55259 | 104.08506 | 38762 ft | 483 kts | 4° |
| 2026-05-06 07:37 | 5.61999 | 104.08723 | 38769 ft | 483 kts | 4° |
| 2026-05-06 07:38 | 5.68747 | 104.08942 | 38771 ft | 483 kts | 4° |
| 2026-05-06 07:38 | 5.75486 | 104.09160 | 38775 ft | 483 kts | 4° |
| 2026-05-06 07:39 | 5.82205 | 104.09377 | 38769 ft | 483 kts | 4° |
| 2026-05-06 07:39 | 5.88964 | 104.09596 | 38768 ft | 484 kts | 4° |
| 2026-05-06 07:40 | 5.95698 | 104.09813 | 38769 ft | 483 kts | 4° |
| 2026-05-06 07:40 | 6.02462 | 104.10032 | 38771 ft | 484 kts | 4° |
| 2026-05-06 07:41 | 6.09227 | 104.10251 | 38766 ft | 483 kts | 4° |
| 2026-05-06 07:41 | 6.15940 | 104.10468 | 38771 ft | 481 kts | 4° |
| 2026-05-06 07:42 | 6.22661 | 104.10683 | 38766 ft | 481 kts | 4° |
| 2026-05-06 07:42 | 6.29329 | 104.10897 | 38770 ft | 480 kts | 4° |
| 2026-05-06 07:43 | 6.36016 | 104.11111 | 38767 ft | 480 kts | 4° |
| 2026-05-06 07:43 | 6.42714 | 104.11329 | 38768 ft | 480 kts | 4° |
| 2026-05-06 07:44 | 6.49411 | 104.11548 | 38765 ft | 480 kts | 3° |
| 2026-05-06 07:44 | 6.56119 | 104.11765 | 38768 ft | 479 kts | 3° |
| 2026-05-06 07:45 | 6.62805 | 104.11983 | 38772 ft | 479 kts | 3° |
| 2026-05-06 07:45 | 6.69501 | 104.12200 | 38764 ft | 479 kts | 3° |
| 2026-05-06 07:46 | 6.76189 | 104.12418 | 38767 ft | 479 kts | 3° |
| 2026-05-06 07:46 | 6.82860 | 104.12633 | 38763 ft | 479 kts | 3° |
| 2026-05-06 07:47 | 6.89522 | 104.12849 | 38760 ft | 478 kts | 3° |
| 2026-05-06 07:47 | 6.96174 | 104.13067 | 38750 ft | 477 kts | 3° |
| 2026-05-06 07:48 | 7.02842 | 104.13046 | 38756 ft | 478 kts | 358° |
| 2026-05-06 07:48 | 7.09568 | 104.12702 | 38763 ft | 480 kts | 358° |
| 2026-05-06 07:49 | 7.16248 | 104.12348 | 38769 ft | 480 kts | 358° |
| 2026-05-06 07:49 | 7.22963 | 104.12136 | 38768 ft | 479 kts | 2° |
| 2026-05-06 07:50 | 7.29578 | 104.12564 | 38770 ft | 478 kts | 7° |
| 2026-05-06 07:50 | 7.36174 | 104.13576 | 38767 ft | 478 kts | 10° |
| 2026-05-06 07:51 | 7.42756 | 104.14680 | 38768 ft | 479 kts | 10° |
| 2026-05-06 07:51 | 7.49352 | 104.15785 | 38766 ft | 480 kts | 10° |
| 2026-05-06 07:52 | 7.55987 | 104.16894 | 38769 ft | 481 kts | 10° |
| 2026-05-06 07:52 | 7.62599 | 104.17999 | 38766 ft | 480 kts | 10° |
| 2026-05-06 07:53 | 7.69233 | 104.19107 | 38770 ft | 480 kts | 10° |
| 2026-05-06 07:53 | 7.75862 | 104.20214 | 38766 ft | 480 kts | 10° |
| 2026-05-06 07:54 | 7.82437 | 104.21312 | 38769 ft | 481 kts | 10° |
| 2026-05-06 07:54 | 7.89064 | 104.22420 | 38766 ft | 482 kts | 10° |
| 2026-05-06 07:55 | 7.95693 | 104.23530 | 38769 ft | 482 kts | 9° |
| 2026-05-06 07:55 | 8.02323 | 104.24640 | 38768 ft | 482 kts | 9° |
| 2026-05-06 07:56 | 8.08973 | 104.25751 | 38768 ft | 481 kts | 9° |
| 2026-05-06 07:56 | 8.15586 | 104.26855 | 38769 ft | 481 kts | 9° |
| 2026-05-06 07:57 | 8.22216 | 104.27959 | 38766 ft | 482 kts | 10° |
| 2026-05-06 07:57 | 8.28866 | 104.29072 | 38763 ft | 483 kts | 10° |
| 2026-05-06 07:58 | 8.35513 | 104.30185 | 38759 ft | 483 kts | 10° |
| 2026-05-06 07:58 | 8.42136 | 104.31295 | 38751 ft | 484 kts | 10° |
| 2026-05-06 07:59 | 8.48812 | 104.32415 | 38753 ft | 483 kts | 10° |
| 2026-05-06 07:59 | 8.55471 | 104.33533 | 38749 ft | 484 kts | 10° |
| 2026-05-06 08:00 | 8.62136 | 104.34651 | 38749 ft | 485 kts | 10° |
| 2026-05-06 08:00 | 8.68826 | 104.35774 | 38747 ft | 485 kts | 10° |
| 2026-05-06 08:01 | 8.75477 | 104.36892 | 38748 ft | 485 kts | 10° |
| 2026-05-06 08:01 | 8.82185 | 104.38018 | 38748 ft | 486 kts | 10° |
| 2026-05-06 08:02 | 8.88871 | 104.39142 | 38753 ft | 486 kts | 10° |
| 2026-05-06 08:02 | 8.95612 | 104.40276 | 38758 ft | 486 kts | 10° |
| 2026-05-06 08:03 | 9.02326 | 104.41406 | 38760 ft | 487 kts | 10° |
| 2026-05-06 08:03 | 9.09015 | 104.42532 | 38759 ft | 487 kts | 10° |
| 2026-05-06 08:04 | 9.15743 | 104.43661 | 38757 ft | 487 kts | 10° |
| 2026-05-06 08:04 | 9.22432 | 104.44782 | 38760 ft | 486 kts | 10° |
| 2026-05-06 08:05 | 9.29122 | 104.45907 | 38285 ft | 487 kts | 10° |
| 2026-05-06 08:05 | 9.32462 | 104.46469 | 37738 ft | 484 kts | 10° |
| 2026-05-06 08:05 | 9.35774 | 104.47028 | 37136 ft | 480 kts | 10° |
| 2026-05-06 08:06 | 9.39057 | 104.47581 | 36511 ft | 478 kts | 10° |
| 2026-05-06 08:06 | 9.42337 | 104.48135 | 35838 ft | 478 kts | 10° |
| 2026-05-06 08:06 | 9.45650 | 104.48694 | 35185 ft | 479 kts | 10° |
| 2026-05-06 08:06 | 9.48953 | 104.49251 | 34485 ft | 480 kts | 10° |
| 2026-05-06 08:07 | 9.52220 | 104.49802 | 33784 ft | 480 kts | 10° |
| 2026-05-06 08:07 | 9.55509 | 104.50358 | 33121 ft | 479 kts | 10° |
| 2026-05-06 08:07 | 9.58824 | 104.50917 | 32756 ft | 479 kts | 10° |
| 2026-05-06 08:07 | 9.62075 | 104.51465 | 32292 ft | 474 kts | 10° |
| 2026-05-06 08:08 | 9.65332 | 104.52016 | 31874 ft | 470 kts | 10° |
| 2026-05-06 08:08 | 9.68549 | 104.52560 | 31494 ft | 464 kts | 10° |
| 2026-05-06 08:08 | 9.71716 | 104.53096 | 31102 ft | 460 kts | 9° |
| 2026-05-06 08:08 | 9.74851 | 104.53625 | 30720 ft | 455 kts | 10° |
| 2026-05-06 08:09 | 9.77973 | 104.54155 | 30325 ft | 451 kts | 9° |
| 2026-05-06 08:09 | 9.81087 | 104.54682 | 29916 ft | 448 kts | 10° |
| 2026-05-06 08:09 | 9.84128 | 104.55197 | 29524 ft | 444 kts | 10° |
| 2026-05-06 08:09 | 9.87157 | 104.55711 | 29126 ft | 440 kts | 10° |
| 2026-05-06 08:10 | 9.90181 | 104.56223 | 28733 ft | 437 kts | 10° |
| 2026-05-06 08:10 | 9.93187 | 104.56734 | 28360 ft | 432 kts | 10° |
| 2026-05-06 08:10 | 9.96155 | 104.57237 | 27996 ft | 428 kts | 10° |
| 2026-05-06 08:10 | 9.99058 | 104.57730 | 27608 ft | 425 kts | 10° |
| 2026-05-06 08:11 | 10.01977 | 104.58225 | 27221 ft | 421 kts | 10° |
| 2026-05-06 08:11 | 10.04885 | 104.58719 | 26795 ft | 419 kts | 10° |
| 2026-05-06 08:11 | 10.07769 | 104.59212 | 26370 ft | 417 kts | 11° |
| 2026-05-06 08:11 | 10.10599 | 104.59714 | 25972 ft | 414 kts | 11° |
| 2026-05-06 08:12 | 10.13428 | 104.60220 | 25560 ft | 411 kts | 11° |
| 2026-05-06 08:12 | 10.16264 | 104.60727 | 25162 ft | 409 kts | 11° |
| 2026-05-06 08:12 | 10.19057 | 104.61227 | 24780 ft | 405 kts | 11° |
| 2026-05-06 08:12 | 10.21844 | 104.61727 | 24390 ft | 403 kts | 11° |
| 2026-05-06 08:13 | 10.24571 | 104.62216 | 24007 ft | 400 kts | 11° |
| 2026-05-06 08:13 | 10.27323 | 104.62711 | 23612 ft | 398 kts | 11° |
| 2026-05-06 08:13 | 10.30041 | 104.63201 | 23209 ft | 396 kts | 11° |
| 2026-05-06 08:13 | 10.32754 | 104.63689 | 22801 ft | 394 kts | 11° |
| 2026-05-06 08:14 | 10.35450 | 104.64174 | 22401 ft | 392 kts | 11° |
| 2026-05-06 08:14 | 10.38132 | 104.64658 | 22020 ft | 390 kts | 11° |
| 2026-05-06 08:14 | 10.40838 | 104.65146 | 21640 ft | 388 kts | 12° |
| 2026-05-06 08:14 | 10.43466 | 104.65632 | 21269 ft | 386 kts | 12° |
| 2026-05-06 08:15 | 10.46124 | 104.66122 | 20895 ft | 384 kts | 11° |
| 2026-05-06 08:15 | 10.48757 | 104.66601 | 20519 ft | 382 kts | 12° |
| 2026-05-06 08:15 | 10.51340 | 104.67068 | 20155 ft | 379 kts | 11° |
| 2026-05-06 08:15 | 10.53962 | 104.67561 | 19779 ft | 377 kts | 13° |
| 2026-05-06 08:16 | 10.56493 | 104.68151 | 19412 ft | 375 kts | 15° |
| 2026-05-06 08:16 | 10.59052 | 104.68776 | 19025 ft | 373 kts | 15° |
| 2026-05-06 08:16 | 10.61571 | 104.69395 | 18642 ft | 371 kts | 15° |
| 2026-05-06 08:16 | 10.64079 | 104.70010 | 18268 ft | 370 kts | 15° |
| 2026-05-06 08:17 | 10.66567 | 104.70618 | 17906 ft | 367 kts | 15° |
| 2026-05-06 08:17 | 10.69046 | 104.71225 | 17765 ft | 356 kts | 15° |
| 2026-05-06 08:17 | 10.71399 | 104.71800 | 17755 ft | 342 kts | 15° |
| 2026-05-06 08:17 | 10.73684 | 104.72356 | 17740 ft | 328 kts | 15° |
| 2026-05-06 08:18 | 10.75894 | 104.72897 | 17398 ft | 327 kts | 15° |
| 2026-05-06 08:18 | 10.78114 | 104.73441 | 17053 ft | 326 kts | 15° |
| 2026-05-06 08:18 | 10.80317 | 104.73979 | 16747 ft | 323 kts | 15° |
| 2026-05-06 08:18 | 10.82490 | 104.74511 | 16449 ft | 320 kts | 15° |
| 2026-05-06 08:19 | 10.84654 | 104.75040 | 16160 ft | 317 kts | 15° |
| 2026-05-06 08:19 | 10.86797 | 104.75564 | 15857 ft | 314 kts | 15° |
| 2026-05-06 08:19 | 10.88892 | 104.76076 | 15577 ft | 310 kts | 15° |
| 2026-05-06 08:19 | 10.90998 | 104.76590 | 15292 ft | 307 kts | 15° |
| 2026-05-06 08:20 | 10.93078 | 104.77100 | 15014 ft | 304 kts | 15° |
| 2026-05-06 08:20 | 10.95113 | 104.77597 | 14709 ft | 302 kts | 15° |
| 2026-05-06 08:20 | 10.97179 | 104.78104 | 14320 ft | 303 kts | 15° |
| 2026-05-06 08:20 | 10.99236 | 104.78610 | 13937 ft | 304 kts | 15° |
| 2026-05-06 08:21 | 11.01288 | 104.79113 | 13562 ft | 304 kts | 15° |
| 2026-05-06 08:21 | 11.03339 | 104.79616 | 13182 ft | 304 kts | 15° |
| 2026-05-06 08:21 | 11.05402 | 104.80122 | 12795 ft | 305 kts | 14° |
| 2026-05-06 08:21 | 11.07487 | 104.80634 | 12391 ft | 306 kts | 14° |
| 2026-05-06 08:22 | 11.09513 | 104.81224 | 11965 ft | 306 kts | 26° |
| 2026-05-06 08:22 | 11.11277 | 104.82419 | 11585 ft | 303 kts | 45° |
| 2026-05-06 08:22 | 11.12737 | 104.83978 | 11225 ft | 302 kts | 48° |
| 2026-05-06 08:22 | 11.14143 | 104.85538 | 10866 ft | 301 kts | 48° |
| 2026-05-06 08:23 | 11.15547 | 104.87101 | 10510 ft | 300 kts | 48° |
| 2026-05-06 08:23 | 11.16962 | 104.88673 | 10153 ft | 298 kts | 48° |
| 2026-05-06 08:23 | 11.18358 | 104.90218 | 9809 ft | 297 kts | 48° |
| 2026-05-06 08:23 | 11.19765 | 104.91772 | 9449 ft | 295 kts | 48° |
| 2026-05-06 08:24 | 11.21118 | 104.93265 | 9093 ft | 280 kts | 48° |
| 2026-05-06 08:24 | 11.22403 | 104.94683 | 8770 ft | 268 kts | 48° |
| 2026-05-06 08:24 | 11.23649 | 104.96056 | 8457 ft | 257 kts | 49° |
| 2026-05-06 08:24 | 11.24829 | 104.97357 | 8155 ft | 248 kts | 48° |
| 2026-05-06 08:25 | 11.25998 | 104.98647 | 7855 ft | 243 kts | 49° |
| 2026-05-06 08:25 | 11.27142 | 104.99908 | 7536 ft | 240 kts | 48° |
| 2026-05-06 08:25 | 11.28268 | 105.01146 | 7220 ft | 235 kts | 48° |
| 2026-05-06 08:25 | 11.29368 | 105.02357 | 6909 ft | 231 kts | 48° |
| 2026-05-06 08:26 | 11.30443 | 105.03542 | 6613 ft | 227 kts | 48° |
| 2026-05-06 08:26 | 11.31524 | 105.04733 | 6315 ft | 229 kts | 48° |
| 2026-05-06 08:26 | 11.32603 | 105.05924 | 6001 ft | 232 kts | 48° |
| 2026-05-06 08:26 | 11.33696 | 105.07128 | 5675 ft | 226 kts | 48° |
| 2026-05-06 08:27 | 11.34755 | 105.08296 | 5375 ft | 224 kts | 48° |
| 2026-05-06 08:27 | 11.35814 | 105.09463 | 5070 ft | 222 kts | 48° |
| 2026-05-06 08:27 | 11.36842 | 105.10596 | 4774 ft | 218 kts | 48° |
| 2026-05-06 08:27 | 11.37872 | 105.11732 | 4478 ft | 215 kts | 49° |
| 2026-05-06 08:28 | 11.38883 | 105.12848 | 4190 ft | 215 kts | 49° |
| 2026-05-06 08:28 | 11.39903 | 105.13973 | 3986 ft | 213 kts | 49° |
| 2026-05-06 08:28 | 11.40935 | 105.15053 | 3822 ft | 215 kts | 38° |
| 2026-05-06 08:28 | 11.42330 | 105.15533 | 3603 ft | 210 kts | 359° |
| 2026-05-06 08:29 | 11.43688 | 105.15157 | 3491 ft | 200 kts | 328° |
| 2026-05-06 08:29 | 11.44730 | 105.14276 | 3429 ft | 192 kts | 318° |
| 2026-05-06 08:29 | 11.45717 | 105.13328 | 3342 ft | 193 kts | 317° |
| 2026-05-06 08:29 | 11.46700 | 105.12384 | 3283 ft | 194 kts | 318° |
| 2026-05-06 08:30 | 11.47683 | 105.11450 | 3173 ft | 193 kts | 318° |
| 2026-05-06 08:30 | 11.48661 | 105.10530 | 3017 ft | 192 kts | 319° |
| 2026-05-06 08:30 | 11.49622 | 105.09629 | 2959 ft | 180 kts | 319° |
| 2026-05-06 08:30 | 11.50478 | 105.08737 | 2932 ft | 177 kts | 301° |
| 2026-05-06 08:31 | 11.50667 | 105.07540 | 2929 ft | 174 kts | 253° |
| 2026-05-06 08:31 | 11.49988 | 105.06544 | 2946 ft | 171 kts | 213° |
| 2026-05-06 08:31 | 11.48978 | 105.05868 | 2997 ft | 175 kts | 212° |
| 2026-05-06 08:31 | 11.47999 | 105.05133 | 2861 ft | 176 kts | 217° |
| 2026-05-06 08:32 | 11.47089 | 105.04299 | 2639 ft | 174 kts | 222° |
| 2026-05-06 08:32 | 11.46234 | 105.03413 | 2421 ft | 174 kts | 224° |
| 2026-05-06 08:32 | 11.45421 | 105.02527 | 2208 ft | 172 kts | 225° |
| 2026-05-06 08:32 | 11.44622 | 105.01640 | 1985 ft | 165 kts | 225° |
| 2026-05-06 08:33 | 11.43858 | 105.00793 | 1784 ft | 161 kts | 225° |
| 2026-05-06 08:33 | 11.43113 | 104.99966 | 1580 ft | 155 kts | 225° |
| 2026-05-06 08:33 | 11.42383 | 104.99162 | 1394 ft | 154 kts | 225° |
| 2026-05-06 08:33 | 11.41657 | 104.98361 | 1206 ft | 153 kts | 226° |
| 2026-05-06 08:34 | 11.40940 | 104.97550 | 1013 ft | 153 kts | 226° |
| 2026-05-06 08:34 | 11.39490 | 104.95964 | 610 ft | 152 kts | 226° |
| 2026-05-06 08:34 | 11.38775 | 104.95167 | 414 ft | 153 kts | 226° |
| 2026-05-06 08:35 | 11.38053 | 104.94376 | 241 ft | 151 kts | 227° |
| 2026-05-06 08:35 | 11.37333 | 104.93587 | 88 ft | 151 kts | 226° |
| 2026-05-06 08:35 | 11.36658 | 104.92847 | 15 ft | 125 kts | 226° |
| 2026-05-06 08:35 | 11.36190 | 104.92334 | 14 ft | 72 kts | 227° |
| 2026-05-06 08:36 | 11.35906 | 104.92020 | 15 ft | 55 kts | 226° |